createdAt,value
2023-04-16T00:00:48.302Z,13.67
2023-04-16T00:05:51.343Z,17.20
2023-04-16T00:10:54.334Z,18.17
2023-04-16T00:15:58.985Z,18.17
2023-04-16T00:21:01.789Z,18.80
2023-04-16T00:26:04.423Z,12.57
2023-04-16T00:31:08.388Z,16.70
2023-04-16T00:36:11.086Z,19.03
2023-04-16T00:41:13.689Z,20.47
2023-04-16T00:46:17.985Z,12.53
2023-04-16T00:51:21.409Z,17.20
2023-04-16T00:56:25.585Z,23.33
2023-04-16T01:01:29.736Z,26.03
2023-04-16T01:06:32.392Z,23.10
2023-04-16T01:11:35.002Z,23.60
2023-04-16T01:23:26.776Z,20.90
2023-04-16T01:28:29.419Z,15.63
2023-04-16T01:33:32.303Z,23.30
2023-04-16T01:38:36.515Z,20.00
2023-04-16T01:43:40.277Z,28.43
2023-04-16T01:48:43.323Z,20.10
2023-04-16T01:53:47.237Z,23.37
2023-04-16T01:58:49.799Z,28.23
2023-04-16T02:03:54.672Z,31.57
2023-04-16T02:08:58.644Z,29.67
2023-04-16T02:14:01.745Z,21.70
2023-04-16T02:19:04.741Z,25.00
2023-04-16T02:24:11.916Z,24.70
2023-04-16T02:29:14.807Z,28.73
2023-04-16T02:34:21.663Z,23.60
2023-04-16T02:39:26.417Z,27.53
2023-04-16T02:44:30.450Z,26.07
2023-04-16T02:49:33.021Z,30.07
2023-04-16T02:54:36.909Z,29.60
2023-04-16T02:59:39.506Z,33.50
2023-04-16T03:04:42.227Z,36.17
2023-04-16T03:09:46.752Z,29.50
2023-04-16T03:14:51.666Z,38.47
2023-04-16T03:19:54.375Z,34.43
2023-04-16T03:24:58.331Z,38.37
2023-04-16T03:30:01.187Z,41.17
2023-04-16T03:35:03.955Z,33.13
2023-04-16T03:40:09.859Z,38.50
2023-04-16T03:45:13.545Z,23.53
2023-04-16T03:50:16.884Z,24.50
2023-04-16T03:55:21.345Z,30.30
2023-04-16T04:00:24.047Z,33.60
2023-04-16T04:05:37.562Z,23.40
2023-04-16T04:10:41.604Z,31.83
2023-04-16T04:15:47.958Z,31.30
2023-04-16T04:20:50.853Z,26.20
2023-04-16T04:25:57.575Z,24.47
2023-04-16T04:31:01.190Z,30.03
2023-04-16T04:36:07.124Z,26.70
2023-04-16T04:41:12.099Z,29.03
2023-04-16T04:46:15.296Z,26.27
2023-04-16T04:51:17.935Z,40.30
2023-04-16T04:56:24.223Z,24.67
2023-04-16T05:01:26.911Z,28.73
2023-04-16T05:06:29.722Z,28.90
2023-04-16T05:11:34.838Z,31.33
2023-04-16T05:16:38.150Z,32.20
2023-04-16T05:21:40.699Z,37.13
2023-04-16T05:26:44.597Z,35.17
2023-04-16T05:31:47.264Z,42.80
2023-04-16T05:36:50.277Z,51.77
2023-04-16T05:41:54.231Z,45.07
2023-04-16T05:46:56.800Z,39.40
2023-04-16T05:51:59.428Z,36.03
2023-04-16T05:57:03.333Z,41.87
2023-04-16T06:02:06.400Z,45.13
2023-04-16T06:07:08.945Z,40.03
2023-04-16T06:12:12.849Z,38.20
2023-04-16T06:17:16.562Z,40.13
2023-04-16T06:22:19.239Z,36.57
2023-04-16T06:27:23.117Z,37.10
2023-04-16T06:32:26.153Z,45.67
2023-04-16T06:37:28.726Z,35.20
2023-04-16T06:42:32.638Z,53.77
2023-04-16T06:47:35.300Z,44.40
2023-04-16T06:52:37.948Z,39.00
2023-04-16T06:57:41.905Z,37.97
2023-04-16T07:02:44.508Z,33.93
2023-04-16T07:07:47.653Z,33.73
2023-04-16T07:12:52.015Z,36.83
2023-04-16T07:17:54.659Z,36.57
2023-04-16T07:22:59.218Z,39.20
2023-04-16T07:28:04.417Z,37.23
2023-04-16T07:33:07.109Z,37.70
2023-04-16T07:38:09.894Z,36.70
2023-04-16T07:43:16.140Z,38.30
2023-04-16T07:48:18.745Z,37.40
2023-04-16T07:53:21.322Z,44.33
2023-04-16T07:58:25.376Z,43.03
2023-04-16T08:03:28.318Z,39.37
2023-04-16T08:08:31.605Z,35.80
2023-04-16T08:13:36.591Z,42.03
2023-04-16T08:18:39.131Z,36.20
2023-04-16T08:23:41.690Z,33.43
2023-04-16T08:28:46.502Z,40.70
2023-04-16T08:33:49.219Z,35.40
2023-04-16T08:38:52.494Z,43.03
2023-04-16T08:43:58.649Z,43.87
2023-04-16T08:49:02.264Z,35.00
2023-04-16T08:54:09.915Z,38.17
2023-04-16T08:59:14.823Z,33.17
2023-04-16T09:04:18.059Z,33.30
2023-04-16T09:09:22.123Z,36.27
2023-04-16T09:14:26.445Z,34.20
2023-04-16T09:19:29.406Z,37.07
2023-04-16T09:24:34.500Z,32.10
2023-04-16T09:29:40.441Z,33.20
2023-04-16T09:35:02.382Z,35.80
2023-04-16T09:40:08.155Z,32.00
2023-04-16T09:45:12.720Z,30.67
2023-04-16T09:50:18.583Z,31.20
2023-04-16T09:55:24.552Z,31.70
2023-04-16T10:07:15.268Z,36.43
2023-04-16T10:12:18.192Z,32.20
2023-04-16T10:17:21.418Z,26.07
2023-04-16T10:22:25.345Z,30.63
2023-04-16T10:27:28.318Z,25.33
2023-04-16T10:32:32.764Z,23.00
2023-04-16T10:37:38.523Z,23.93
2023-04-16T10:42:41.297Z,20.00
2023-04-16T10:47:43.928Z,26.70
2023-04-16T10:52:47.871Z,26.67
2023-04-16T10:57:52.645Z,18.87
2023-04-16T11:02:55.562Z,21.60
2023-04-16T11:08:15.101Z,19.63
2023-04-16T11:13:19.346Z,19.43
2023-04-16T11:18:21.933Z,19.23
2023-04-16T11:23:25.833Z,18.30
2023-04-16T11:28:35.080Z,14.97
2023-04-16T11:33:40.812Z,14.93
2023-04-16T11:38:47.136Z,17.40
2023-04-16T11:43:51.044Z,28.23
2023-04-16T11:48:56.164Z,13.80
2023-04-16T11:54:01.559Z,18.17
2023-04-16T11:59:13.481Z,18.87
2023-04-16T12:04:17.553Z,16.60
2023-04-16T12:09:26.057Z,19.97
2023-04-16T12:14:29.417Z,17.10
2023-04-16T12:19:32.169Z,14.37
2023-04-16T12:24:38.526Z,15.17
2023-04-16T12:29:42.392Z,15.90
2023-04-16T12:34:51.349Z,17.73
2023-04-16T12:39:55.527Z,18.20
2023-04-16T12:44:58.040Z,20.07
2023-04-16T12:50:01.391Z,19.97
2023-04-16T12:55:05.774Z,17.30
2023-04-16T13:00:10.370Z,19.63
2023-04-16T13:05:14.432Z,16.27
2023-04-16T13:10:21.492Z,18.40
2023-04-16T13:15:24.184Z,17.90
2023-04-16T13:20:27.179Z,18.90
2023-04-16T13:25:31.741Z,17.83
2023-04-16T13:30:34.374Z,17.97
2023-04-16T13:35:37.188Z,27.33
2023-04-16T13:40:41.946Z,27.10
2023-04-16T13:45:44.518Z,16.77
2023-04-16T13:50:47.050Z,20.50
2023-04-16T13:55:50.962Z,17.37
2023-04-16T14:00:53.976Z,19.93
2023-04-16T14:05:59.334Z,19.30
2023-04-16T14:11:05.442Z,17.93
2023-04-16T14:16:08.041Z,20.00
2023-04-16T14:21:10.640Z,17.90
2023-04-16T14:26:14.649Z,18.40
2023-04-16T14:31:17.921Z,19.23
2023-04-16T14:36:20.876Z,16.97
2023-04-16T14:41:25.017Z,23.57
2023-04-16T14:46:27.955Z,14.50
2023-04-16T14:51:31.345Z,19.97
2023-04-16T14:56:35.635Z,18.93
2023-04-16T15:01:39.685Z,18.47
2023-04-16T15:06:42.370Z,18.23
2023-04-16T15:11:46.333Z,26.27
2023-04-16T15:16:49.116Z,17.10
2023-04-16T15:21:51.707Z,19.10
2023-04-16T15:26:56.072Z,19.57
2023-04-16T15:31:58.752Z,21.53
2023-04-16T15:37:01.375Z,23.23
2023-04-16T15:42:07.411Z,28.77
2023-04-16T15:47:10.197Z,30.93
2023-04-16T15:52:12.819Z,29.37
2023-04-16T15:57:16.735Z,25.87
2023-04-16T16:02:19.376Z,26.60
2023-04-16T16:07:22.179Z,30.43
2023-04-16T16:12:26.456Z,24.30
2023-04-16T16:17:29.261Z,20.97
2023-04-16T16:22:31.838Z,34.10
2023-04-16T16:27:36.397Z,35.30
2023-04-16T16:32:40.798Z,33.00
2023-04-16T16:37:43.632Z,29.90
2023-04-16T16:42:47.590Z,30.83
2023-04-16T16:47:51.006Z,33.87
2023-04-16T16:52:54.358Z,37.40
2023-04-16T16:57:58.432Z,30.53
2023-04-16T17:03:01.312Z,34.30
2023-04-16T17:08:04.172Z,31.00
2023-04-16T17:13:08.084Z,38.43
2023-04-16T17:18:10.707Z,35.83
2023-04-16T17:23:14.017Z,30.63
2023-04-16T17:28:18.137Z,33.30
2023-04-16T17:33:21.250Z,37.17
2023-04-16T17:38:24.463Z,36.03
2023-04-16T17:43:28.814Z,35.43
2023-04-16T17:48:31.714Z,31.87
2023-04-16T17:53:34.271Z,33.67
2023-04-16T17:58:38.381Z,33.87
2023-04-16T18:03:42.024Z,33.37
2023-04-16T18:08:44.697Z,28.80
2023-04-16T18:13:48.602Z,24.90
2023-04-16T18:18:51.295Z,34.03
2023-04-16T18:23:54.083Z,29.93
2023-04-16T18:28:58.275Z,32.57
2023-04-16T18:34:03.455Z,26.57
2023-04-16T18:39:08.093Z,34.00
2023-04-16T18:44:12.685Z,40.43
2023-04-16T18:49:15.391Z,25.57
2023-04-16T18:54:20.266Z,29.20
2023-04-16T18:59:24.223Z,26.57
2023-04-16T19:04:28.772Z,26.97
2023-04-16T19:09:31.386Z,27.60
2023-04-16T19:14:35.617Z,34.90
2023-04-16T19:19:38.948Z,36.97
2023-04-16T19:24:42.162Z,26.43
2023-04-16T19:29:47.173Z,26.70
2023-04-16T19:34:49.845Z,26.83
2023-04-16T19:39:52.566Z,28.80
2023-04-16T19:44:56.810Z,31.40
2023-04-16T19:49:59.492Z,32.43
2023-04-16T19:55:02.040Z,30.30
2023-04-16T20:00:11.164Z,28.13
2023-04-16T20:05:13.779Z,27.50
2023-04-16T20:10:16.662Z,29.53
2023-04-16T20:15:21.105Z,29.10
2023-04-16T20:20:23.789Z,27.93
2023-04-16T20:25:26.501Z,33.63
2023-04-16T20:30:38.397Z,30.40
2023-04-16T20:35:41.016Z,27.13
2023-04-16T20:40:46.994Z,31.43
2023-04-16T20:45:50.880Z,31.20
2023-04-16T20:50:59.502Z,34.63
2023-04-16T20:56:02.098Z,34.33
2023-04-16T21:01:06.135Z,30.50
2023-04-16T21:06:08.834Z,28.17
2023-04-16T21:11:11.399Z,28.77
2023-04-16T21:16:15.517Z,30.50
2023-04-16T21:21:18.936Z,36.17
2023-04-16T21:26:21.534Z,31.40
2023-04-16T21:31:25.514Z,41.17
2023-04-16T21:36:29.115Z,36.10
2023-04-16T21:41:31.653Z,36.10
2023-04-16T21:46:35.655Z,41.80
2023-04-16T21:51:40.068Z,37.37
2023-04-16T21:56:43.083Z,49.23
2023-04-16T22:01:47.011Z,39.27
2023-04-16T22:06:55.684Z,42.17
2023-04-16T22:11:58.547Z,37.40
2023-04-16T22:17:03.431Z,42.97
2023-04-16T22:22:06.411Z,42.80
2023-04-16T22:27:08.955Z,38.50
2023-04-16T22:32:12.875Z,45.77
2023-04-16T22:37:15.813Z,45.13
2023-04-16T22:42:18.374Z,42.03
2023-04-16T22:47:22.458Z,42.97
2023-04-16T22:52:25.031Z,48.67
2023-04-16T22:57:27.565Z,45.03
2023-04-16T23:02:31.533Z,43.63
2023-04-16T23:07:34.159Z,43.17
2023-04-16T23:12:37.936Z,45.20
2023-04-16T23:17:41.894Z,42.37
2023-04-16T23:22:44.457Z,36.73
2023-04-16T23:27:47.412Z,38.53
2023-04-16T23:32:51.433Z,34.37
2023-04-16T23:37:53.988Z,42.20
2023-04-16T23:42:56.600Z,51.30
2023-04-16T23:48:00.619Z,41.97
2023-04-16T23:53:03.205Z,35.30
2023-04-16T23:58:05.746Z,46.07
